Time;durP1;ratioP1;P1;durP2;ratioP2;P2;SDS_P1;SDS_P2;PMS_P1;PMS_P2;Temp;Humidity;BMP_temperature;BMP_pressure;BME280_temperature;BME280_humidity;BME280_pressure;Samples;Min_cycle;Max_cycle;Signal;HPM_P1;HPM_P2
2020/12/09 00:00:11;;;;;;;33.33;17.80;;;1.80;84.30;;;2.15;71.52;96504.44;5022951;28;20060;-45
2020/12/09 00:02:41;;;;;;;36.03;18.40;;;1.80;84.50;;;2.20;71.15;96508.44;5022293;28;20058;-48
2020/12/09 00:05:12;;;;;;;39.80;19.07;;;1.90;84.30;;;2.24;71.53;96509.81;5022222;28;20049;-46
2020/12/09 00:07:40;;;;;;;36.30;17.60;;;1.90;84.40;;;2.23;70.91;96501.13;5021011;28;20049;-43
2020/12/09 00:10:08;;;;;;;34.20;18.23;;;1.90;84.10;;;2.23;70.94;96506.38;5022753;28;20085;-45
2020/12/09 00:12:36;;;;;;;35.10;17.93;;;1.90;84.30;;;2.25;70.83;96507.06;5022834;28;20064;-44
2020/12/09 00:15:10;;;;;;;35.07;17.80;;;1.90;84.10;;;2.22;70.86;96507.31;5022188;28;20064;-44
2020/12/09 00:17:37;;;;;;;;;;;1.90;84.10;;;2.19;71.08;96519.88;5023141;28;20056;-44
2020/12/09 00:20:05;;;;;;;32.03;16.70;;;1.80;84.10;;;2.19;70.99;96510.25;5037844;28;19939;-43
2020/12/09 00:22:35;;;;;;;37.70;18.33;;;1.70;84.50;;;2.20;70.91;96516.31;5022481;28;20050;-44
2020/12/09 00:25:04;;;;;;;34.77;18.73;;;1.70;84.70;;;2.21;70.78;96518.81;5021969;28;20055;-43
2020/12/09 00:27:33;;;;;;;40.07;19.23;;;1.80;84.50;;;2.23;71.35;96521.28;5022493;28;20046;-43
2020/12/09 00:30:03;;;;;;;39.63;19.07;;;1.90;84.50;;;2.27;71.41;96520.03;5022813;28;20054;-45
2020/12/09 00:32:31;;;;;;;35.17;17.77;;;1.90;84.20;;;2.29;71.28;96524.19;5021164;28;20058;-44
2020/12/09 00:34:58;;;;;;;37.70;19.63;;;2.00;84.10;;;2.34;70.76;96531.66;5022392;28;20314;-48
2020/12/09 00:37:25;;;;;;;38.10;19.33;;;2.00;84.00;;;2.35;70.97;96523.66;5022237;28;20046;-45
2020/12/09 00:39:52;;;;;;;33.83;19.13;;;2.00;83.60;;;2.35;71.16;96528.91;5022631;28;20080;-44
2020/12/09 00:42:20;;;;;;;30.97;17.80;;;2.00;83.60;;;2.25;71.33;96525.44;5022200;28;20368;-45
2020/12/09 00:44:47;;;;;;;40.70;19.37;;;1.90;84.00;;;2.21;71.05;96521.44;5020418;28;20048;-43
2020/12/09 00:47:15;;;;;;;29.67;18.33;;;1.80;84.30;;;2.25;70.94;96524.59;5021878;28;20056;-45
2020/12/09 00:52:40;;;;;;;34.92;17.30;;;1.80;84.50;;;2.28;71.23;96532.22;5020509;28;20053;-46
2020/12/09 00:55:08;;;;;;;36.03;18.30;;;1.90;84.60;;;2.27;71.00;96527.91;5020114;28;20050;-42
2020/12/09 00:57:36;;;;;;;39.60;18.60;;;1.90;84.30;;;2.14;71.27;96525.56;5020917;28;20058;-44
2020/12/09 01:00:06;;;;;;;35.47;18.63;;;1.70;84.70;;;2.05;72.03;96531.63;5037310;28;20072;-48
2020/12/09 01:02:36;;;;;;;35.70;18.67;;;1.60;85.60;;;2.05;71.42;96526.38;5037480;28;20057;-44
2020/12/09 01:05:09;;;;;;;38.80;19.10;;;1.60;85.60;;;2.03;71.54;96536.19;5036734;28;20049;-43
2020/12/09 01:07:37;;;;;;;37.00;18.30;;;1.60;85.60;;;2.08;71.46;96529.56;5021798;28;20049;-45
2020/12/09 01:10:08;;;;;;;34.60;17.83;;;1.70;85.70;;;2.10;71.44;96537.31;5022109;28;20046;-44
2020/12/09 01:12:40;;;;;;;35.13;18.53;;;1.70;85.40;;;2.07;71.43;96532.31;5021787;28;20050;-47
2020/12/09 01:15:09;;;;;;;40.20;18.30;;;1.70;85.40;;;2.07;71.78;96534.94;5021632;28;20046;-43
2020/12/09 01:17:36;;;;;;;39.07;17.40;;;1.70;85.90;;;2.12;71.35;96530.94;5020650;28;20045;-45
2020/12/09 01:20:04;;;;;;;40.57;18.93;;;1.70;85.30;;;2.12;71.90;96538.81;5021739;28;20245;-43
2020/12/09 01:22:34;;;;;;;42.23;19.10;;;1.80;85.20;;;2.19;71.71;96536.50;5022032;28;20054;-43
2020/12/09 01:25:03;;;;;;;40.37;19.50;;;1.90;85.10;;;2.25;71.60;96535.94;5021596;28;20360;-44
2020/12/09 01:27:31;;;;;;;35.30;18.33;;;1.90;85.10;;;2.29;71.68;96541.75;5021768;28;20229;-43
2020/12/09 01:29:58;;;;;;;40.87;19.63;;;2.00;84.60;;;2.32;71.04;96549.34;5021792;28;20041;-44
2020/12/09 01:32:25;;;;;;;39.27;18.27;;;1.90;84.70;;;2.32;71.43;96547.53;5021717;28;20250;-45
2020/12/09 01:34:53;;;;;;;30.63;17.87;;;1.90;84.70;;;2.29;71.25;96549.63;5021652;28;20076;-43
2020/12/09 01:37:20;;;;;;;35.10;19.47;;;1.90;85.10;;;2.18;71.39;96545.31;5021760;28;20049;-44
2020/12/09 01:39:47;;;;;;;37.27;19.77;;;1.70;85.50;;;2.20;70.93;96543.41;5021287;28;20054;-43
2020/12/09 01:42:15;;;;;;;43.33;19.53;;;1.70;85.50;;;2.15;71.16;96535.09;5021721;28;20104;-45
2020/12/09 01:44:43;;;;;;;35.60;19.00;;;1.70;85.70;;;2.13;71.69;96544.91;5035659;28;20056;-46
2020/12/09 01:47:10;;;;;;;37.17;18.73;;;1.70;85.80;;;2.10;71.36;96542.56;5018922;28;20563;-47
2020/12/09 01:49:38;;;;;;;35.23;18.93;;;1.70;85.80;;;2.14;71.51;96541.31;5019837;28;20046;-43
2020/12/09 01:52:06;;;;;;;35.77;17.50;;;1.70;85.80;;;2.15;71.29;96540.34;5021638;28;20368;-46
2020/12/09 01:54:33;;;;;;;40.20;21.17;;;1.80;85.60;;;2.04;71.79;96549.19;5021636;28;20060;-44
2020/12/09 01:57:08;;;;;;;39.37;20.43;;;1.70;86.00;;;2.05;72.22;96552.63;5022387;28;20050;-45
2020/12/09 01:59:38;;;;;;;40.23;19.87;;;1.70;86.10;;;2.03;71.77;96552.75;5025119;28;20056;-44
2020/12/09 02:02:07;;;;;;;37.60;19.50;;;1.60;86.00;;;1.91;72.31;96553.84;5024819;28;20226;-48
2020/12/09 02:04:36;;;;;;;41.53;18.63;;;1.50;86.80;;;1.94;72.21;96559.66;5024845;28;20049;-45
2020/12/09 02:07:04;;;;;;;34.63;19.10;;;1.50;86.70;;;1.88;72.67;96557.56;5024508;28;20042;-48
2020/12/09 02:09:32;;;;;;;40.20;20.17;;;1.50;87.30;;;1.87;72.21;96558.53;5024751;28;20050;-45
2020/12/09 02:11:59;;;;;;;40.33;21.00;;;1.50;87.50;;;1.90;72.38;96549.53;5025176;28;20221;-43
2020/12/09 02:14:27;;;;;;;40.87;18.97;;;1.50;87.10;;;1.91;72.55;96549.41;5024786;28;20046;-43
2020/12/09 02:16:58;;;;;;;40.97;19.53;;;1.50;87.10;;;1.91;71.84;96556.47;5024350;28;20076;-45
2020/12/09 02:19:27;;;;;;;40.20;19.27;;;1.50;87.00;;;1.96;71.89;96562.16;5024611;28;20056;-46
2020/12/09 02:21:54;;;;;;;39.43;19.93;;;1.60;86.80;;;2.01;72.06;96570.44;5024697;28;20050;-47
2020/12/09 02:24:22;;;;;;;45.93;22.23;;;1.70;86.70;;;2.03;71.64;96572.94;5024412;28;20356;-45
2020/12/09 02:26:50;;;;;;;42.00;20.03;;;1.70;86.60;;;1.99;72.09;96575.00;5024181;28;20049;-42
2020/12/09 02:29:20;;;;;;;42.87;21.10;;;1.60;86.70;;;1.96;72.15;96580.53;5024526;28;20046;-43
2020/12/09 02:31:47;;;;;;;37.20;18.87;;;1.60;86.90;;;1.96;72.82;96588.41;5024552;28;20050;-45
2020/12/09 02:34:15;;;;;;;38.50;20.37;;;1.60;87.20;;;1.94;72.83;96593.78;5024399;28;20046;-45
2020/12/09 02:36:44;;;;;;;44.30;21.03;;;1.60;87.60;;;2.00;72.25;96594.19;5023919;28;20045;-46
2020/12/09 02:39:12;;;;;;;43.70;20.63;;;1.60;87.30;;;2.00;72.27;96602.91;5024310;28;20141;-45
2020/12/09 02:41:39;;;;;;;46.03;21.07;;;1.70;87.50;;;2.06;72.34;96606.81;5024010;28;20060;-43
2020/12/09 02:44:06;;;;;;;45.13;21.10;;;1.70;87.10;;;2.11;72.18;96610.69;5022991;28;20056;-47
2020/12/09 02:46:34;;;;;;;44.53;21.97;;;1.80;86.80;;;2.15;72.85;96611.22;5023450;28;20050;-44
2020/12/09 02:49:01;;;;;;;47.13;22.93;;;1.90;86.90;;;2.13;72.65;96616.66;5024107;28;20071;-49
2020/12/09 02:51:28;;;;;;;43.77;20.00;;;1.80;87.80;;;2.16;72.81;96605.84;5023825;28;20049;-44
2020/12/09 02:53:56;;;;;;;42.87;20.37;;;1.90;87.00;;;2.14;73.07;96613.03;5024410;28;20368;-43
2020/12/09 02:56:23;;;;;;;45.27;21.93;;;1.90;87.30;;;1.96;73.11;96607.59;5023598;28;20050;-43
2020/12/09 02:58:50;;;;;;;51.70;23.80;;;1.70;88.10;;;2.03;73.26;96613.13;5019707;28;20054;-43
2020/12/09 03:01:18;;;;;;;45.57;21.17;;;1.70;88.10;;;1.99;73.93;96619.63;5004602;28;20058;-45
2020/12/09 03:03:46;;;;;;;48.53;22.53;;;1.70;88.50;;;1.95;74.14;96620.84;5004394;28;20395;-44
2020/12/09 03:06:16;;;;;;;41.60;20.13;;;1.70;88.40;;;1.93;74.02;96620.97;5018453;28;20049;-46
2020/12/09 03:08:43;;;;;;;48.73;23.83;;;1.80;88.50;;;1.96;73.45;96615.47;5018537;28;20393;-43
2020/12/09 03:11:11;;;;;;;43.50;20.60;;;1.80;88.00;;;1.94;74.38;96613.97;5004148;28;20046;-44
2020/12/09 03:13:38;;;;;;;41.30;19.50;;;1.80;88.20;;;1.97;73.86;96618.91;5003964;28;20050;-44
2020/12/09 03:16:05;;;;;;;36.47;18.37;;;1.80;88.20;;;1.85;75.13;96612.94;5003585;28;20056;-44
2020/12/09 03:18:33;;;;;;;42.40;20.30;;;1.70;89.10;;;1.95;74.43;96613.81;5004578;28;20058;-47
2020/12/09 03:21:01;;;;;;;49.43;23.97;;;1.80;88.70;;;1.93;73.83;96618.34;5003930;28;20500;-47
2020/12/09 03:23:29;;;;;;;34.90;20.53;;;1.80;88.60;;;1.93;74.52;96625.41;5003956;28;20072;-43
2020/12/09 03:25:56;;;;;;;44.50;22.53;;;1.80;88.80;;;2.09;73.49;96628.34;5003200;28;20219;-45
2020/12/09 03:28:23;;;;;;;41.13;22.53;;;1.90;88.30;;;2.15;73.73;96633.09;5003809;28;20056;-44
2020/12/09 03:30:51;;;;;;;45.80;21.33;;;1.90;87.90;;;2.08;73.66;96629.34;5003646;28;20072;-45
2020/12/09 03:33:19;;;;;;;45.70;22.27;;;1.90;88.30;;;2.15;73.86;96640.97;5003709;28;20046;-46
2020/12/09 03:35:46;;;;;;;51.20;23.00;;;1.90;88.10;;;2.21;73.07;96644.00;5003140;28;20056;-48
2020/12/09 03:38:14;;;;;;;46.13;22.80;;;2.00;88.10;;;2.23;73.57;96652.59;5003620;28;20046;-47
2020/12/09 03:40:41;;;;;;;41.53;21.70;;;2.00;87.90;;;2.22;73.28;96650.94;5003483;28;20246;-44
2020/12/09 03:43:09;;;;;;;44.27;22.30;;;2.00;87.90;;;2.25;73.29;96645.41;5003582;28;20050;-48
2020/12/09 03:45:36;;;;;;;43.43;21.80;;;2.00;87.80;;;2.31;73.42;96652.78;5002991;28;20052;-46
2020/12/09 03:48:04;;;;;;;46.00;23.70;;;2.00;87.70;;;2.29;73.13;96647.66;5003001;28;20242;-44
2020/12/09 03:50:31;;;;;;;39.13;20.63;;;2.00;87.60;;;2.27;73.68;96648.72;5003365;28;20054;-43
2020/12/09 03:53:00;;;;;;;43.07;21.13;;;2.00;87.90;;;2.33;72.83;96649.03;5003939;28;20076;-45
2020/12/09 03:55:27;;;;;;;50.47;24.07;;;2.00;87.80;;;2.35;72.86;96646.28;5017914;28;20069;-43
2020/12/09 03:57:59;;;;;;;45.93;22.73;;;2.00;87.70;;;2.32;73.34;96636.84;5003532;28;20069;-46
2020/12/09 04:00:26;;;;;;;43.23;21.87;;;2.00;87.70;;;2.35;72.86;96641.03;5003375;28;20435;-45
2020/12/09 04:02:54;;;;;;;47.77;22.87;;;2.00;88.10;;;2.40;72.97;96648.50;5003301;28;20223;-45
2020/12/09 04:05:22;;;;;;;45.80;22.37;;;2.10;87.90;;;2.36;72.89;96643.53;5002555;28;20050;-44
2020/12/09 04:07:49;;;;;;;45.77;23.23;;;2.00;87.80;;;2.34;73.64;96641.97;5003061;28;20050;-44
2020/12/09 04:10:18;;;;;;;42.10;22.03;;;2.00;88.00;;;2.32;72.95;96631.59;5003088;28;20042;-43
2020/12/09 04:12:45;;;;;;;44.90;23.73;;;2.00;88.30;;;2.35;72.96;96633.97;5003050;28;20042;-44
2020/12/09 04:15:13;;;;;;;48.63;21.53;;;2.00;88.40;;;2.29;73.11;96626.63;5002594;28;20048;-44
2020/12/09 04:17:41;;;;;;;43.60;23.63;;;2.00;88.80;;;2.22;73.68;96627.31;5003039;28;20050;-44
2020/12/09 04:20:09;;;;;;;48.73;23.60;;;1.90;88.90;;;2.22;73.28;96637.81;5003231;28;20084;-45
2020/12/09 04:22:36;;;;;;;50.67;24.07;;;1.90;88.90;;;2.17;74.42;96643.44;5002896;28;20046;-43
2020/12/09 04:25:03;;;;;;;47.73;23.03;;;1.90;89.30;;;2.28;72.91;96643.34;5002230;28;20285;-43
2020/12/09 04:27:31;;;;;;;44.73;23.53;;;2.00;89.00;;;2.34;72.98;96647.22;5002563;28;20087;-44
2020/12/09 04:29:58;;;;;;;49.33;25.03;;;2.00;88.60;;;2.30;73.42;96654.53;5002808;28;20068;-43
2020/12/09 04:32:26;;;;;;;52.27;24.13;;;2.00;88.60;;;2.28;73.74;96645.97;5001669;28;20245;-44
2020/12/09 04:34:58;;;;;;;49.03;24.37;;;2.00;88.60;;;2.27;74.10;96646.09;5001795;28;20064;-45
2020/12/09 04:37:27;;;;;;;45.33;23.70;;;2.00;88.80;;;2.35;73.32;96647.09;5002687;28;20216;-45
2020/12/09 04:39:57;;;;;;;43.33;22.83;;;2.00;88.70;;;2.35;73.12;96651.53;5002721;28;20056;-45
2020/12/09 04:42:25;;;;;;;44.03;23.63;;;2.10;88.60;;;2.35;73.46;96643.66;5001845;28;20050;-46
2020/12/09 04:44:54;;;;;;;46.13;23.30;;;2.10;88.70;;;2.39;73.19;96644.22;5002219;28;20216;-44
2020/12/09 04:47:32;;;;;;;44.10;22.03;;;2.10;88.60;;;2.35;73.25;96654.16;5002421;28;20047;-44
2020/12/09 04:50:09;;;;;;;49.40;22.87;;;2.00;88.60;;;2.26;73.83;96654.97;5002124;28;20056;-43
2020/12/09 04:52:40;;;;;;;40.30;21.80;;;1.90;89.20;;;2.31;73.59;96658.84;5002840;28;20058;-44
2020/12/09 04:55:18;;;;;;;48.20;23.43;;;2.00;89.10;;;2.33;73.20;96659.53;5002063;28;20170;-45
2020/12/09 04:58:13;;;;;;;48.00;22.93;;;2.00;88.70;;;2.16;74.01;96666.25;5002525;28;20322;-44
2020/12/09 05:00:45;;;;;;;47.63;21.10;;;1.90;88.80;;;2.27;73.65;96667.09;5002355;28;20064;-45
2020/12/09 05:03:17;;;;;;;48.60;21.97;;;1.90;88.70;;;2.22;73.67;96672.78;5002506;28;20060;-44
2020/12/09 05:05:48;;;;;;;49.97;24.10;;;1.80;88.90;;;2.19;73.62;96659.91;5001958;28;20048;-46
2020/12/09 05:08:22;;;;;;;46.73;22.33;;;1.80;88.80;;;2.10;74.44;96676.47;5002408;28;20042;-44
2020/12/09 05:10:53;;;;;;;38.47;21.45;;;1.80;89.20;;;2.08;73.87;96678.41;5002334;28;20050;-44
2020/12/09 05:13:26;;;;;;;44.73;21.13;;;1.70;89.20;;;2.08;73.65;96687.09;5000806;28;20061;-47
2020/12/09 05:15:57;;;;;;;46.00;23.35;;;1.70;89.40;;;2.00;73.94;96688.69;5001963;28;20060;-44
2020/12/09 05:18:41;;;;;;;43.23;21.87;;;1.60;89.50;;;1.96;74.40;96694.22;5002362;28;20362;-44
2020/12/09 05:21:12;;;;;;;44.47;22.15;;;1.60;89.60;;;2.03;73.39;96704.19;5002386;28;20076;-47
2020/12/09 05:23:48;;;;;;;48.27;23.63;;;1.60;89.40;;;1.93;74.21;96697.09;5002310;28;20050;-44
2020/12/09 05:26:25;;;;;;;48.90;22.73;;;1.60;89.80;;;1.91;74.37;96703.47;5002003;28;20068;-45
2020/12/09 05:29:12;;;;;;;44.03;21.43;;;1.50;89.90;;;1.87;74.64;96700.25;5002217;28;20051;-46
2020/12/09 05:31:43;;;;;;;43.07;22.00;;;1.50;90.00;;;1.90;73.57;96691.28;5050715;23;20224;-43
2020/12/09 05:34:22;;;;;;;43.10;19.97;;;1.50;89.80;;;1.89;73.96;96698.31;5056732;28;20041;-46
2020/12/09 05:36:52;;;;;;;47.67;22.23;;;1.60;89.40;;;1.89;73.85;96706.19;5044967;28;20063;-44
2020/12/09 05:39:20;;;;;;;46.57;21.23;;;1.50;89.60;;;1.96;73.32;96704.72;5045333;28;20060;-47
2020/12/09 05:41:48;;;;;;;45.03;22.10;;;1.50;89.50;;;1.93;73.96;96709.41;5045274;28;20053;-44
2020/12/09 05:44:15;;;;;;;50.07;23.37;;;1.50;89.50;;;1.95;73.82;96704.84;5044858;28;20345;-47
2020/12/09 05:47:02;;;;;;;46.07;21.23;;;1.50;89.40;;;1.97;74.13;96705.56;5044733;28;20049;-45
2020/12/09 05:49:36;;;;;;;43.77;20.63;;;1.60;88.90;;;1.94;73.63;96700.59;5045165;28;20052;-43
2020/12/09 05:52:08;;;;;;;;;;;1.50;89.20;;;1.90;73.30;96707.88;5045601;28;20047;-45
2020/12/09 05:54:40;;;;;;;42.97;19.80;;;1.50;89.70;;;1.87;73.69;96705.50;5045134;28;20223;-45
2020/12/09 05:57:10;;;;;;;44.83;22.17;;;1.40;89.60;;;1.86;74.10;96713.50;5044773;28;20060;-45
2020/12/09 05:59:48;;;;;;;57.30;22.23;;;1.40;89.70;;;1.88;73.59;96711.56;5044981;28;20052;-44
2020/12/09 06:02:22;;;;;;;42.80;19.43;;;1.50;89.70;;;1.83;73.78;96704.09;5042306;28;20045;-45
2020/12/09 06:04:49;;;;;;;43.55;22.08;;;1.50;89.80;;;1.84;73.62;96707.56;5044424;28;20188;-44
2020/12/09 06:07:18;;;;;;;42.90;20.57;;;1.40;89.80;;;1.85;73.60;96704.81;5044634;28;20047;-45
2020/12/09 06:10:04;;;;;;;44.40;20.27;;;1.50;89.80;;;1.84;73.96;96699.69;5044773;28;20041;-44
2020/12/09 06:12:59;;;;;;;52.67;21.73;;;1.50;89.70;;;1.81;74.48;96702.59;5044822;28;20048;-44
2020/12/09 06:15:33;;;;;;;48.57;20.83;;;1.50;90.10;;;1.84;74.12;96707.56;5044148;28;20374;-44
2020/12/09 06:18:19;;;;;;;;;;;1.50;90.10;;;1.87;73.94;96712.56;5044721;28;20045;-44
2020/12/09 06:20:47;;;;;;;44.50;19.07;;;1.50;90.30;;;1.88;74.16;96720.31;5043531;28;20144;-44
2020/12/09 06:23:16;;;;;;;46.97;22.20;;;1.50;90.00;;;1.92;74.17;96723.47;5044916;28;20045;-47
2020/12/09 06:25:45;;;;;;;44.17;19.93;;;1.60;89.90;;;1.92;74.49;96726.97;5042824;28;20244;-43
2020/12/09 06:28:21;;;;;;;50.87;24.03;;;1.60;89.50;;;1.95;73.47;96731.94;5044421;28;20046;-44
2020/12/09 06:30:52;;;;;;;51.97;21.87;;;1.60;90.00;;;2.02;74.13;96728.81;5044310;28;20344;-43
2020/12/09 06:33:36;;;;;;;48.17;19.80;;;1.60;89.80;;;1.93;73.91;96728.59;5044280;28;20048;-43
2020/12/09 06:36:18;;;;;;;42.40;20.57;;;1.60;90.20;;;1.90;73.90;96722.78;5043729;28;20075;-43
2020/12/09 06:39:13;;;;;;;44.20;23.10;;;1.60;90.40;;;1.89;74.35;96726.38;5044280;28;20245;-44
2020/12/09 06:41:56;;;;;;;44.40;22.37;;;1.60;90.70;;;1.90;74.58;96728.03;5044165;28;20045;-43
2020/12/09 06:44:29;;;;;;;44.90;21.93;;;1.60;90.80;;;1.89;74.44;96715.88;5042878;28;20056;-44
2020/12/09 06:46:59;;;;;;;39.25;20.90;;;1.60;90.60;;;1.98;74.90;96720.34;5043568;28;20041;-43
2020/12/09 06:49:30;;;;;;;44.47;22.63;;;1.70;90.60;;;1.95;74.80;96718.81;5043965;28;20049;-47
2020/12/09 06:52:01;;;;;;;52.63;24.47;;;1.70;90.30;;;2.04;74.12;96722.47;5043373;28;20256;-44
2020/12/09 06:54:48;;;;;;;52.47;24.17;;;1.80;90.00;;;2.00;74.33;96717.56;5043943;28;20047;-45
2020/12/09 06:57:40;;;;;;;40.40;21.70;;;1.80;90.50;;;1.95;75.48;96731.94;5044068;28;20053;-44
2020/12/09 07:00:17;;;;;;;44.13;21.73;;;1.80;90.80;;;2.04;74.43;96735.59;5042602;28;20059;-43
2020/12/09 07:02:50;;;;;;;47.23;22.27;;;1.80;90.80;;;2.03;75.43;96736.53;5042961;28;20056;-44
2020/12/09 07:05:25;;;;;;;48.47;22.97;;;1.80;90.50;;;2.12;74.82;96737.56;5042289;28;20049;-44
2020/12/09 07:08:03;;;;;;;46.93;22.97;;;1.90;90.30;;;2.01;74.92;96746.34;5042107;28;20076;-43
2020/12/09 07:10:33;;;;;;;53.30;22.30;;;1.80;91.10;;;1.95;75.70;96752.09;5043635;28;20041;-44
2020/12/09 07:13:07;;;;;;;50.27;24.43;;;1.80;91.50;;;2.00;75.24;96756.97;5043490;28;20041;-47
2020/12/09 07:15:37;;;;;;;43.07;21.23;;;1.80;91.40;;;1.97;75.69;96758.88;5041933;28;20053;-47
2020/12/09 07:18:06;;;;;;;50.57;24.53;;;1.80;91.80;;;2.00;75.44;96760.44;5043635;28;20084;-45
2020/12/09 07:20:34;;;;;;;49.93;24.47;;;1.80;91.70;;;1.97;75.84;96761.50;5043411;28;20045;-45
2020/12/09 07:23:04;;;;;;;52.43;24.17;;;1.80;91.90;;;2.01;75.54;96769.13;5043713;28;20063;-44
2020/12/09 07:25:32;;;;;;;48.17;21.20;;;1.80;91.60;;;2.00;76.30;96770.09;5041815;28;20053;-43
2020/12/09 07:28:01;;;;;;;46.13;22.70;;;1.90;91.60;;;2.08;75.83;96771.13;5043075;28;20050;-44
2020/12/09 07:30:29;;;;;;;49.47;25.03;;;1.90;91.30;;;2.09;75.60;96779.81;5058611;28;20049;-45
2020/12/09 07:32:56;;;;;;;48.40;24.47;;;1.90;91.10;;;2.12;75.21;96790.91;5044918;28;20053;-45
2020/12/09 07:35:24;;;;;;;52.77;24.27;;;1.90;91.00;;;2.06;75.72;96794.03;5062655;28;20040;-44
2020/12/09 07:37:56;;;;;;;43.07;22.23;;;1.90;91.10;;;2.15;75.20;96789.78;5062903;28;20056;-45
2020/12/09 07:40:31;;;;;;;49.73;24.00;;;1.90;91.10;;;2.17;75.11;96799.22;5063060;28;20052;-46
2020/12/09 07:43:07;;;;;;;52.60;23.33;;;1.90;90.80;;;2.21;75.35;96801.59;5062970;28;20049;-45
2020/12/09 07:45:43;;;;;;;53.60;23.77;;;1.90;91.00;;;2.21;75.18;96798.94;5060759;28;20362;-48
2020/12/09 07:48:18;;;;;;;48.53;24.77;;;2.00;91.00;;;2.28;74.85;96803.56;5062367;28;20053;-46
2020/12/09 07:50:52;;;;;;;48.20;23.50;;;2.00;90.60;;;2.27;75.27;96801.06;5060258;28;20240;-45
2020/12/09 07:53:20;;;;;;;44.13;22.17;;;2.00;90.50;;;2.36;74.67;96803.75;5062688;28;20049;-44
2020/12/09 07:55:47;;;;;;;44.90;21.70;;;2.00;90.50;;;2.33;74.98;96793.50;5061465;28;20049;-43
2020/12/09 07:58:17;;;;;;;49.33;23.43;;;2.10;90.20;;;2.44;74.68;96805.72;5061515;28;20051;-44
2020/12/09 08:00:50;;;;;;;55.10;23.07;;;2.20;89.90;;;2.46;74.82;96801.19;5061953;28;20049;-44
2020/12/09 08:03:23;;;;;;;50.33;22.73;;;2.20;89.70;;;2.52;74.12;96802.44;5062462;28;20111;-43
2020/12/09 08:05:54;;;;;;;47.17;23.37;;;2.30;89.50;;;2.51;74.18;96806.84;5062055;28;20240;-44
2020/12/09 08:08:23;;;;;;;40.83;21.20;;;2.20;89.10;;;2.49;74.29;96807.97;5061590;28;20037;-43
2020/12/09 08:10:51;;;;;;;47.33;23.37;;;2.20;89.10;;;2.50;74.40;96804.34;5061388;28;20056;-44
2020/12/09 08:13:26;;;;;;;42.63;22.63;;;2.20;89.00;;;2.53;74.36;96804.09;5062151;28;20051;-44
2020/12/09 08:16:06;;;;;;;47.63;22.40;;;2.20;89.20;;;2.55;74.30;96812.69;5053995;28;20344;-45
2020/12/09 08:18:47;;;;;;;51.23;23.40;;;2.20;89.40;;;2.55;73.92;96807.44;5060905;28;20581;-44
2020/12/09 08:21:26;;;;;;;48.83;22.83;;;2.20;89.00;;;2.58;74.47;96816.84;5059788;28;20055;-43
2020/12/09 08:23:59;;;;;;;46.87;23.17;;;2.30;89.30;;;2.54;73.85;96821.53;5059040;28;20061;-44
2020/12/09 08:26:37;;;;;;;45.67;21.83;;;2.20;89.50;;;2.55;73.96;96826.66;5049348;28;20051;-43
2020/12/09 08:29:25;;;;;;;43.77;23.77;;;2.20;89.20;;;2.63;74.18;96833.88;5070962;28;20041;-46
2020/12/09 08:32:03;;;;;;;45.63;23.63;;;2.30;89.50;;;2.69;73.79;96835.97;5059819;28;20252;-45
2020/12/09 08:34:37;;;;;;;43.90;21.90;;;2.40;89.30;;;2.70;73.76;96844.72;5059602;28;20055;-45
2020/12/09 08:37:17;;;;;;;43.23;22.50;;;2.40;89.10;;;2.73;74.19;96836.53;5040576;28;20065;-43
2020/12/09 08:39:46;;;;;;;50.13;23.47;;;2.40;88.60;;;2.70;74.13;96840.28;5040851;28;20053;-43
2020/12/09 08:42:22;;;;;;;48.17;24.33;;;2.40;88.70;;;2.70;74.52;96850.78;5041093;28;20056;-44
2020/12/09 08:44:53;;;;;;;44.13;22.93;;;2.40;89.20;;;2.63;74.10;96846.19;5039514;28;20055;-44
2020/12/09 08:47:42;;;;;;;46.33;21.73;;;2.30;89.40;;;2.55;74.25;96845.03;5059254;28;20041;-46
2020/12/09 08:50:17;;;;;;;45.73;24.30;;;2.30;90.10;;;2.52;74.45;96853.19;5045663;28;20049;-44
2020/12/09 08:52:46;;;;;;;40.63;20.63;;;2.30;89.80;;;2.54;74.53;96856.53;5039171;28;20060;-45
2020/12/09 08:55:19;;;;;;;45.53;22.33;;;2.30;90.10;;;2.59;74.55;96858.75;5044375;28;20171;-43
2020/12/09 08:57:46;;;;;;;42.60;21.27;;;2.30;89.80;;;2.53;74.61;96859.28;5059764;28;20049;-47
2020/12/09 09:00:23;;;;;;;42.87;21.00;;;2.30;89.90;;;2.55;74.42;96857.34;5052648;28;20065;-45
2020/12/09 09:02:56;;;;;;;41.00;21.07;;;2.30;89.90;;;2.60;74.38;96859.59;5052554;28;20371;-43
2020/12/09 09:05:25;;;;;;;42.73;24.03;;;2.30;90.00;;;2.63;74.43;96860.16;5059626;28;20053;-46
2020/12/09 09:08:03;;;;;;;50.30;23.20;;;2.30;90.00;;;2.60;75.03;96856.94;5062667;28;20060;-45
2020/12/09 09:10:36;;;;;;;49.47;22.07;;;2.40;90.00;;;2.58;74.48;96870.25;5079056;28;20045;-44
2020/12/09 09:13:09;;;;;;;37.50;20.70;;;2.30;90.10;;;2.56;74.28;96875.63;5064283;28;20075;-44
2020/12/09 09:15:46;;;;;;;42.90;21.87;;;2.30;90.30;;;2.59;74.83;96873.69;5058395;28;20337;-44
2020/12/09 09:18:22;;;;;;;46.37;23.63;;;2.40;90.10;;;2.57;74.82;96871.19;5064859;28;20344;-44
2020/12/09 09:20:58;;;;;;;42.83;20.47;;;2.40;90.30;;;2.61;74.73;96875.22;5063567;28;20340;-44
2020/12/09 09:23:38;;;;;;;41.93;22.07;;;2.40;90.40;;;2.51;75.07;96872.53;5063291;28;20082;-44
2020/12/09 09:26:15;;;;;;;45.27;22.47;;;2.30;90.70;;;2.47;75.38;96865.88;5062863;28;20049;-43
2020/12/09 09:28:45;;;;;;;42.97;21.63;;;2.20;91.20;;;2.35;75.60;96866.94;5062586;28;20244;-44
2020/12/09 09:31:22;;;;;;;44.20;22.37;;;2.20;91.60;;;2.44;75.02;96866.13;5063972;28;20243;-44
2020/12/09 09:33:54;;;;;;;44.47;22.33;;;2.20;91.50;;;2.38;75.91;96864.03;5064373;28;20063;-44
2020/12/09 09:36:31;;;;;;;44.97;22.23;;;2.20;91.40;;;2.33;76.42;96868.84;5060146;28;20226;-46
2020/12/09 09:39:07;;;;;;;47.30;21.73;;;2.20;91.70;;;2.40;75.49;96863.91;5064157;28;20045;-46
2020/12/09 09:41:40;;;;;;;45.47;23.97;;;2.20;91.20;;;2.22;76.08;96866.28;5061762;28;20052;-44
2020/12/09 09:44:14;;;;;;;47.27;24.23;;;2.10;92.10;;;2.22;76.50;96859.25;5062223;28;20078;-44
2020/12/09 09:46:45;;;;;;;45.50;21.53;;;2.10;92.50;;;2.21;76.22;96862.84;5045166;28;20067;-44
2020/12/09 09:49:19;;;;;;;43.90;21.77;;;2.10;92.10;;;2.22;75.76;96851.34;5047696;28;20317;-44
2020/12/09 09:51:52;;;;;;;42.77;20.67;;;2.10;92.10;;;2.17;77.07;96858.78;5061864;28;20055;-47
2020/12/09 09:54:23;;;;;;;46.03;22.50;;;2.10;92.20;;;2.34;75.91;96852.94;5062932;28;20041;-45
2020/12/09 09:56:52;;;;;;;43.87;24.20;;;2.30;92.00;;;2.41;76.43;96858.53;5062846;28;20336;-45
2020/12/09 09:59:22;;;;;;;42.63;21.57;;;2.30;91.60;;;2.43;76.21;96853.16;5063009;28;20056;-44
2020/12/09 10:01:53;;;;;;;41.93;22.17;;;2.40;91.70;;;2.40;76.15;96848.97;5063115;28;20063;-46
2020/12/09 10:04:21;;;;;;;40.60;22.13;;;2.30;92.10;;;2.45;76.19;96852.06;5063859;28;20240;-46
2020/12/09 10:06:50;;;;;;;44.10;23.10;;;2.40;91.90;;;2.54;75.84;96850.44;5062078;28;20103;-45
2020/12/09 10:09:19;;;;;;;46.90;23.47;;;2.40;91.40;;;2.63;75.51;96856.69;5063172;28;20293;-45
2020/12/09 10:11:48;;;;;;;37.17;21.20;;;2.50;91.20;;;2.54;76.48;96851.28;5062693;28;20051;-46
2020/12/09 10:14:16;;;;;;;45.93;22.63;;;2.40;91.40;;;2.48;76.27;96861.47;5063029;28;20039;-44
2020/12/09 10:16:46;;;;;;;41.73;21.23;;;2.40;92.00;;;2.43;76.66;96858.41;5062670;28;20337;-45
2020/12/09 10:19:15;;;;;;;40.13;22.60;;;2.30;92.10;;;2.56;76.12;96851.97;5063379;28;20248;-45
2020/12/09 10:21:43;;;;;;;41.83;22.10;;;2.40;91.80;;;2.50;76.55;96860.38;5062685;28;20061;-46
2020/12/09 10:24:11;;;;;;;46.23;23.67;;;2.40;91.90;;;2.58;75.98;96856.25;5062455;28;20057;-45
2020/12/09 10:26:39;;;;;;;50.23;23.33;;;2.40;91.50;;;2.69;75.60;96859.63;5060118;28;20059;-45
2020/12/09 10:29:09;;;;;;;48.17;22.40;;;2.50;91.50;;;2.82;75.87;96853.34;5054315;28;20044;-44
2020/12/09 10:31:46;;;;;;;45.43;22.63;;;2.70;91.00;;;2.66;76.18;96854.66;5062800;28;20080;-45
2020/12/09 10:34:18;;;;;;;42.13;22.03;;;2.60;91.00;;;2.71;76.01;96860.31;5063502;28;20390;-46
2020/12/09 10:36:51;;;;;;;48.70;24.40;;;2.50;91.00;;;2.65;75.74;96860.03;5063495;28;20052;-48
2020/12/09 10:39:22;;;;;;;42.80;22.45;;;2.50;91.20;;;2.58;76.10;96859.75;5062977;28;20240;-46